createdAt,value
2023-04-07T00:01:44.750Z,7.10
2023-04-07T00:03:53.152Z,7.20
2023-04-07T00:05:58.412Z,7.20
2023-04-07T00:08:03.559Z,7.30
2023-04-07T00:10:10.576Z,7.30
2023-04-07T00:12:15.654Z,7.40
2023-04-07T00:14:20.721Z,7.40
2023-04-07T00:16:25.937Z,7.30
2023-04-07T00:18:31.187Z,7.30
2023-04-07T00:20:38.855Z,7.30
2023-04-07T00:22:44.341Z,7.40
2023-04-07T00:24:49.445Z,7.40
2023-04-07T00:26:54.489Z,7.40
2023-04-07T00:28:59.673Z,7.40
2023-04-07T00:31:04.977Z,7.40
2023-04-07T00:33:10.284Z,7.40
2023-04-07T00:35:15.934Z,7.40
2023-04-07T00:37:24.113Z,7.40
2023-04-07T00:39:30.360Z,7.40
2023-04-07T00:41:37.594Z,7.40
2023-04-07T00:43:43.384Z,7.40
2023-04-07T00:45:48.593Z,7.40
2023-04-07T00:47:53.949Z,7.50
2023-04-07T00:49:59.292Z,7.40
2023-04-07T00:52:04.719Z,7.40
2023-04-07T00:54:13.174Z,7.40
2023-04-07T00:56:18.475Z,7.40
2023-04-07T00:58:23.747Z,7.40
2023-04-07T01:00:30.252Z,7.40
2023-04-07T01:02:44.465Z,7.30
2023-04-07T01:04:57.636Z,7.30
2023-04-07T01:07:09.537Z,7.20
2023-04-07T01:09:30.519Z,7.20
2023-04-07T01:11:45.500Z,7.00
2023-04-07T01:13:57.325Z,7.10
2023-04-07T01:16:16.347Z,7.10
2023-04-07T01:18:34.809Z,7.20
2023-04-07T01:20:41.561Z,7.20
2023-04-07T01:22:53.135Z,7.20
2023-04-07T01:25:34.654Z,7.20
2023-04-07T01:27:46.837Z,7.30
2023-04-07T01:29:56.571Z,7.20
2023-04-07T01:32:06.382Z,7.20
2023-04-07T01:34:14.621Z,7.30
2023-04-07T01:36:21.657Z,7.10
2023-04-07T01:38:29.560Z,7.20
2023-04-07T01:40:37.830Z,7.10
2023-04-07T01:42:44.403Z,7.10
2023-04-07T01:44:51.257Z,7.10
2023-04-07T01:47:00.139Z,7.10
2023-04-07T01:49:06.931Z,7.10
2023-04-07T01:51:17.681Z,7.10
2023-04-07T01:53:23.338Z,7.00
2023-04-07T01:55:28.873Z,7.00
2023-04-07T01:57:40.866Z,7.10
2023-04-07T01:59:52.765Z,7.00
2023-04-07T02:02:03.850Z,7.00
2023-04-07T02:04:17.804Z,7.00
2023-04-07T02:06:27.784Z,7.00
2023-04-07T02:08:38.615Z,7.00
2023-04-07T02:10:44.645Z,7.00
2023-04-07T02:12:51.224Z,6.90
2023-04-07T02:14:59.086Z,6.90
2023-04-07T02:17:07.736Z,6.90
2023-04-07T02:19:13.252Z,6.90
2023-04-07T02:21:19.686Z,6.90
2023-04-07T02:23:25.346Z,6.90
2023-04-07T02:25:32.520Z,6.90
2023-04-07T02:27:37.694Z,6.80
2023-04-07T02:29:42.851Z,6.80
2023-04-07T02:31:47.962Z,6.90
2023-04-07T02:33:56.479Z,6.90
2023-04-07T02:36:01.840Z,6.80
2023-04-07T02:38:06.950Z,6.80
2023-04-07T02:40:14.997Z,6.80
2023-04-07T02:42:20.171Z,6.80
2023-04-07T02:44:27.533Z,6.80
2023-04-07T02:46:32.730Z,6.70
2023-04-07T02:48:37.875Z,6.70
2023-04-07T02:50:45.738Z,6.80
2023-04-07T02:52:50.951Z,6.70
2023-04-07T02:54:56.769Z,6.70
2023-04-07T02:57:04.937Z,6.60
2023-04-07T02:59:10.117Z,6.60
2023-04-07T03:01:19.989Z,6.60
2023-04-07T03:03:25.401Z,6.60
2023-04-07T03:05:59.275Z,6.60
2023-04-07T03:08:04.830Z,6.60
2023-04-07T03:10:11.753Z,6.60
2023-04-07T03:12:17.280Z,6.50
2023-04-07T03:14:22.687Z,6.60
2023-04-07T03:16:28.863Z,6.50
2023-04-07T03:18:40.589Z,6.50
2023-04-07T03:20:48.025Z,6.40
2023-04-07T03:22:57.423Z,6.40
2023-04-07T03:25:07.213Z,6.40
2023-04-07T03:27:12.814Z,6.50
2023-04-07T03:29:22.772Z,6.40
2023-04-07T03:31:28.822Z,6.50
2023-04-07T03:33:33.906Z,6.50
2023-04-07T03:35:39.223Z,6.50
2023-04-07T03:37:44.959Z,6.40
2023-04-07T03:39:56.952Z,6.40
2023-04-07T03:42:05.138Z,6.40
2023-04-07T03:44:12.374Z,6.40
2023-04-07T03:46:19.200Z,6.40
2023-04-07T03:48:24.448Z,6.40
2023-04-07T03:50:40.738Z,6.40
2023-04-07T03:52:51.884Z,6.40
2023-04-07T03:55:10.258Z,6.40
2023-04-07T03:57:15.687Z,6.50
2023-04-07T03:59:24.791Z,6.50
2023-04-07T04:01:40.687Z,6.50
2023-04-07T04:03:52.422Z,6.40
2023-04-07T04:06:06.017Z,6.50
2023-04-07T04:08:11.161Z,6.40
2023-04-07T04:10:21.300Z,6.50
2023-04-07T04:12:29.102Z,6.50
2023-04-07T04:14:42.755Z,6.50
2023-04-07T04:16:50.203Z,6.50
2023-04-07T04:19:15.733Z,6.40
2023-04-07T04:21:21.879Z,6.40
2023-04-07T04:23:27.018Z,6.40
2023-04-07T04:25:36.396Z,6.40
2023-04-07T04:27:45.243Z,6.30
2023-04-07T04:29:56.712Z,6.40
2023-04-07T04:32:12.699Z,6.50
2023-04-07T04:34:21.602Z,6.40
2023-04-07T04:36:28.323Z,6.40
2023-04-07T04:38:37.959Z,6.40
2023-04-07T04:40:56.259Z,6.40
2023-04-07T04:43:07.623Z,6.40
2023-04-07T04:45:15.239Z,6.30
2023-04-07T04:47:24.911Z,6.40
2023-04-07T04:49:30.138Z,6.40
2023-04-07T04:51:37.838Z,6.40
2023-04-07T04:53:51.468Z,6.40
2023-04-07T04:55:59.799Z,6.40
2023-04-07T04:58:18.259Z,6.40
2023-04-07T05:00:26.725Z,6.40
2023-04-07T05:02:39.371Z,6.50
2023-04-07T05:04:46.378Z,6.40
2023-04-07T05:07:03.429Z,6.50
2023-04-07T05:09:13.462Z,6.40
2023-04-07T05:11:24.836Z,6.40
2023-04-07T05:13:33.153Z,6.40
2023-04-07T05:15:40.569Z,6.40
2023-04-07T05:17:50.805Z,6.40
2023-04-07T05:20:01.859Z,6.40
2023-04-07T05:22:18.840Z,6.50
2023-04-07T05:24:28.304Z,6.40
2023-04-07T05:26:39.421Z,6.40
2023-04-07T05:28:44.575Z,6.40
2023-04-07T05:30:55.531Z,6.40
2023-04-07T05:33:05.634Z,6.40
2023-04-07T05:35:20.775Z,6.50
2023-04-07T05:37:31.510Z,6.50
2023-04-07T05:39:41.684Z,6.50
2023-04-07T05:41:52.929Z,6.50
2023-04-07T05:44:02.403Z,6.50
2023-04-07T05:46:11.548Z,6.40
2023-04-07T05:48:25.693Z,6.40
2023-04-07T05:50:32.281Z,6.40
2023-04-07T05:52:40.076Z,6.50
2023-04-07T05:54:56.612Z,6.40
2023-04-07T05:57:10.755Z,6.50
2023-04-07T05:59:21.530Z,6.50
2023-04-07T06:01:28.060Z,6.50
2023-04-07T06:03:33.660Z,6.50
2023-04-07T06:05:49.226Z,6.50
2023-04-07T06:07:57.269Z,6.50
2023-04-07T06:10:05.297Z,6.50
2023-04-07T06:12:13.557Z,6.50
2023-04-07T06:14:20.920Z,6.50
2023-04-07T06:16:26.223Z,6.50
2023-04-07T06:18:31.333Z,6.50
2023-04-07T06:20:37.167Z,6.50
2023-04-07T06:22:42.334Z,6.50
2023-04-07T06:24:47.499Z,6.50
2023-04-07T06:26:52.628Z,6.50
2023-04-07T06:29:02.432Z,6.50
2023-04-07T06:31:07.905Z,6.50
2023-04-07T06:33:14.280Z,6.60
2023-04-07T06:35:19.961Z,6.60
2023-04-07T06:37:25.284Z,6.60
2023-04-07T06:39:31.012Z,6.60
2023-04-07T06:41:36.840Z,6.50
2023-04-07T06:43:42.024Z,6.60
2023-04-07T06:45:49.693Z,6.60
2023-04-07T06:47:54.929Z,6.60
2023-04-07T06:50:00.039Z,6.70
2023-04-07T06:52:05.150Z,6.70
2023-04-07T06:54:13.033Z,6.70
2023-04-07T06:56:18.400Z,6.70
2023-04-07T06:58:23.487Z,6.70
2023-04-07T07:00:31.780Z,6.80
2023-04-07T07:02:39.633Z,6.80
2023-04-07T07:04:44.932Z,6.80
2023-04-07T07:06:50.233Z,6.80
2023-04-07T07:08:55.391Z,6.80
2023-04-07T07:11:00.836Z,6.80
2023-04-07T07:13:05.885Z,6.70
2023-04-07T07:15:12.299Z,6.80
2023-04-07T07:17:17.485Z,6.80
2023-04-07T07:19:25.247Z,6.80
2023-04-07T07:21:31.627Z,6.80
2023-04-07T07:23:36.855Z,6.80
2023-04-07T07:25:42.243Z,6.80
2023-04-07T07:27:47.385Z,6.80
2023-04-07T07:29:52.526Z,6.90
2023-04-07T07:31:57.668Z,6.90
2023-04-07T07:34:03.060Z,6.90
2023-04-07T07:36:11.562Z,6.90
2023-04-07T07:38:16.706Z,6.90
2023-04-07T07:40:22.206Z,6.80
2023-04-07T07:42:27.300Z,6.80
2023-04-07T07:44:32.686Z,6.80
2023-04-07T07:46:37.922Z,6.80
2023-04-07T07:48:43.052Z,6.80
2023-04-07T07:50:49.283Z,6.90
2023-04-07T07:52:56.922Z,6.90
2023-04-07T07:55:02.039Z,7.00
2023-04-07T07:57:07.173Z,6.90
2023-04-07T07:59:13.053Z,6.90
2023-04-07T08:01:18.365Z,6.90
2023-04-07T08:03:23.506Z,6.90
2023-04-07T08:05:28.830Z,6.90
2023-04-07T08:07:33.959Z,6.90
2023-04-07T08:09:41.818Z,6.90
2023-04-07T08:11:48.528Z,6.90
2023-04-07T08:13:54.153Z,7.00
2023-04-07T08:15:59.504Z,7.00
2023-04-07T08:18:06.514Z,7.00
2023-04-07T08:20:13.914Z,7.00
2023-04-07T08:22:20.027Z,7.10
2023-04-07T08:24:25.165Z,7.10
2023-04-07T08:26:33.012Z,7.10
2023-04-07T08:28:38.289Z,7.10
2023-04-07T08:30:43.378Z,7.10
2023-04-07T08:32:49.086Z,7.10
2023-04-07T08:34:54.148Z,7.20
2023-04-07T08:36:59.435Z,7.20
2023-04-07T08:39:05.883Z,7.20
2023-04-07T08:41:15.389Z,7.20
2023-04-07T08:43:24.719Z,7.20
2023-04-07T08:45:32.944Z,7.30
2023-04-07T08:47:40.033Z,7.30
2023-04-07T08:49:47.747Z,7.40
2023-04-07T08:51:55.822Z,7.40
2023-04-07T08:54:08.694Z,7.50
2023-04-07T08:56:15.669Z,7.50
2023-04-07T08:58:23.905Z,7.60
2023-04-07T09:00:29.439Z,7.60
2023-04-07T09:02:36.273Z,7.60
2023-04-07T09:04:42.499Z,7.70
2023-04-07T09:06:47.555Z,7.70
2023-04-07T09:08:52.677Z,7.70
2023-04-07T09:10:59.541Z,7.70
2023-04-07T09:13:04.634Z,7.80
2023-04-07T09:15:13.584Z,7.80
2023-04-07T09:17:18.688Z,7.90
2023-04-07T09:19:23.896Z,7.90
2023-04-07T09:21:29.572Z,7.90
2023-04-07T09:23:37.646Z,7.90
2023-04-07T09:25:42.869Z,7.80
2023-04-07T09:27:59.560Z,7.90
2023-04-07T09:30:18.253Z,7.90
2023-04-07T09:32:41.702Z,8.00
2023-04-07T09:34:47.179Z,8.00
2023-04-07T09:36:52.257Z,8.10
2023-04-07T09:38:57.380Z,8.10
2023-04-07T09:41:10.716Z,8.10
2023-04-07T09:43:20.878Z,8.10
2023-04-07T09:45:36.582Z,8.10
2023-04-07T09:47:42.479Z,8.10
2023-04-07T09:49:55.353Z,8.00
2023-04-07T09:52:05.194Z,8.00
2023-04-07T09:54:10.754Z,8.00
2023-04-07T09:56:17.233Z,8.00
2023-04-07T09:58:23.288Z,8.10
2023-04-07T10:00:31.772Z,8.20
2023-04-07T10:02:37.462Z,8.30
2023-04-07T10:04:44.200Z,8.30
2023-04-07T10:06:50.746Z,8.20
2023-04-07T10:08:55.824Z,8.30
2023-04-07T10:11:02.180Z,8.20
2023-04-07T10:13:09.377Z,8.20
2023-04-07T10:15:17.150Z,8.20
2023-04-07T10:17:26.729Z,8.20
2023-04-07T10:19:35.504Z,8.30
2023-04-07T10:21:46.618Z,8.30
2023-04-07T10:24:02.590Z,8.20
2023-04-07T10:26:10.710Z,8.20
2023-04-07T10:28:17.280Z,8.30
2023-04-07T10:30:28.712Z,8.20
2023-04-07T10:32:49.138Z,8.20
2023-04-07T10:35:08.118Z,8.20
2023-04-07T10:37:19.445Z,8.10
2023-04-07T10:39:32.030Z,8.20
2023-04-07T10:41:39.504Z,8.20
2023-04-07T10:43:45.299Z,8.30
2023-04-07T10:46:00.116Z,8.20
2023-04-07T10:48:18.523Z,8.30
2023-04-07T10:50:25.965Z,8.40
2023-04-07T10:52:31.460Z,8.50
2023-04-07T10:54:37.168Z,8.50
2023-04-07T10:57:18.235Z,8.50
2023-04-07T10:59:28.282Z,8.70
2023-04-07T11:01:47.548Z,8.70
2023-04-07T11:04:05.006Z,8.80
2023-04-07T11:06:12.976Z,8.80
2023-04-07T11:08:46.724Z,9.00
2023-04-07T11:10:53.480Z,9.00
2023-04-07T11:13:05.564Z,9.10
2023-04-07T11:15:24.811Z,9.20
2023-04-07T11:17:29.998Z,9.30
2023-04-07T11:19:54.487Z,9.30
2023-04-07T11:22:29.387Z,9.30
2023-04-07T11:24:37.829Z,9.40
2023-04-07T11:26:44.992Z,9.40
2023-04-07T11:28:51.616Z,9.50
2023-04-07T11:30:58.504Z,9.50
2023-04-07T11:33:04.319Z,9.60
2023-04-07T11:35:13.501Z,9.70
2023-04-07T11:37:29.208Z,9.80
2023-04-07T11:39:38.178Z,9.80
2023-04-07T11:41:57.300Z,9.90
2023-04-07T11:44:24.290Z,9.80
2023-04-07T11:46:29.744Z,10.00
2023-04-07T11:48:36.506Z,10.00
2023-04-07T11:50:45.447Z,10.10
2023-04-07T11:52:51.815Z,10.20
2023-04-07T11:54:59.464Z,10.20
2023-04-07T11:57:04.613Z,10.10
2023-04-07T11:59:10.027Z,10.00
2023-04-07T12:01:15.094Z,10.00
2023-04-07T12:03:20.471Z,10.00
2023-04-07T12:05:26.005Z,9.90
2023-04-07T12:07:34.173Z,9.90
2023-04-07T12:09:39.295Z,9.90
2023-04-07T12:11:53.119Z,10.00
2023-04-07T12:13:59.033Z,10.10
2023-04-07T12:16:04.417Z,10.10
2023-04-07T12:18:09.560Z,10.10
2023-04-07T12:20:15.640Z,10.00
2023-04-07T12:22:21.120Z,10.10
2023-04-07T12:24:28.834Z,10.20
2023-04-07T12:26:33.785Z,10.10
2023-04-07T12:28:38.942Z,10.10
2023-04-07T12:30:44.704Z,10.20
2023-04-07T12:32:49.745Z,10.00
2023-04-07T12:34:55.067Z,10.10
2023-04-07T12:37:00.574Z,10.30
2023-04-07T12:39:05.995Z,10.40
2023-04-07T12:41:13.695Z,10.60
2023-04-07T12:43:18.608Z,10.70
2023-04-07T12:45:23.952Z,10.60
2023-04-07T12:47:28.997Z,10.50
2023-04-07T12:49:34.206Z,10.40
2023-04-07T12:51:40.431Z,10.40
2023-04-07T12:53:45.586Z,10.40
2023-04-07T12:55:51.405Z,10.30
2023-04-07T12:57:59.225Z,10.30
2023-04-07T13:00:09.931Z,10.20
2023-04-07T13:02:18.321Z,10.30
2023-04-07T13:04:24.742Z,10.60
2023-04-07T13:06:30.891Z,10.90
2023-04-07T13:08:36.445Z,11.40
2023-04-07T13:10:41.620Z,11.30
2023-04-07T13:12:46.703Z,10.80
2023-04-07T13:15:00.074Z,10.90
2023-04-07T13:17:05.808Z,11.20
2023-04-07T13:19:11.177Z,11.40
2023-04-07T13:23:26.370Z,11.70
2023-04-07T13:25:31.910Z,11.80
2023-04-07T13:27:37.004Z,11.90
2023-04-07T13:29:42.242Z,11.80
2023-04-07T13:31:51.342Z,11.90
2023-04-07T13:33:56.507Z,11.80
2023-04-07T13:36:01.650Z,11.80
2023-04-07T13:38:07.323Z,11.70
2023-04-07T13:40:13.993Z,11.70
2023-04-07T13:42:21.006Z,11.90
2023-04-07T13:44:26.655Z,11.80
2023-04-07T13:46:31.955Z,11.60
2023-04-07T13:48:39.745Z,11.90
2023-04-07T13:50:44.602Z,11.80
2023-04-07T13:52:49.760Z,12.10
2023-04-07T13:54:54.825Z,12.20
2023-04-07T13:56:59.883Z,12.20
2023-04-07T13:59:05.247Z,12.00
2023-04-07T14:01:10.434Z,12.00
2023-04-07T14:03:15.851Z,12.10
2023-04-07T14:05:23.610Z,11.90
2023-04-07T14:07:28.487Z,11.90
2023-04-07T14:09:33.843Z,12.20
2023-04-07T14:11:39.790Z,12.30
2023-04-07T14:13:44.860Z,12.20
2023-04-07T14:15:50.529Z,11.70
2023-04-07T14:17:55.617Z,11.80
2023-04-07T14:20:01.192Z,11.90
2023-04-07T14:22:08.826Z,12.00
2023-04-07T14:24:13.696Z,12.90
2023-04-07T14:26:18.782Z,13.00
2023-04-07T14:28:24.189Z,12.70
2023-04-07T14:30:30.984Z,12.40
2023-04-07T14:32:36.479Z,12.20
2023-04-07T14:34:41.970Z,11.70
2023-04-07T14:36:56.478Z,11.60
2023-04-07T14:39:04.337Z,11.90
2023-04-07T14:41:10.517Z,11.60
2023-04-07T14:43:15.674Z,12.00
2023-04-07T14:45:20.869Z,12.40
2023-04-07T14:47:26.006Z,12.20
2023-04-07T14:49:31.130Z,12.10
2023-04-07T14:51:37.078Z,12.70
2023-04-07T14:53:43.484Z,12.90
2023-04-07T14:55:51.406Z,12.80
2023-04-07T14:57:56.882Z,12.10
2023-04-07T15:00:01.933Z,11.90
2023-04-07T15:02:07.559Z,12.00
2023-04-07T15:04:13.613Z,12.10
2023-04-07T15:06:19.057Z,12.20
2023-04-07T15:08:24.140Z,12.20
2023-04-07T15:10:30.122Z,12.10
2023-04-07T15:12:38.080Z,12.10
2023-04-07T15:14:43.362Z,12.00
2023-04-07T15:16:50.515Z,11.90
2023-04-07T15:18:55.744Z,11.90
2023-04-07T15:21:00.906Z,11.70
2023-04-07T15:23:06.435Z,11.60
2023-04-07T15:25:11.765Z,11.40
2023-04-07T15:27:17.197Z,11.50
2023-04-07T15:29:24.813Z,11.40
2023-04-07T15:31:30.369Z,11.40
2023-04-07T15:33:35.573Z,11.30
2023-04-07T15:35:40.600Z,11.30
2023-04-07T15:37:46.745Z,11.40
2023-04-07T15:39:53.291Z,11.20
2023-04-07T15:41:58.610Z,11.10
2023-04-07T15:44:04.327Z,11.10
2023-04-07T15:46:12.326Z,11.10
2023-04-07T15:48:17.793Z,11.00
2023-04-07T15:50:23.408Z,11.10
2023-04-07T15:52:29.105Z,11.00
2023-04-07T15:54:34.628Z,11.00
2023-04-07T15:56:39.884Z,11.00
2023-04-07T15:58:46.354Z,11.10
2023-04-07T16:00:51.551Z,10.90
2023-04-07T16:02:59.489Z,11.10
2023-04-07T16:05:05.392Z,11.30
2023-04-07T16:07:10.781Z,11.10
2023-04-07T16:09:16.332Z,11.10
2023-04-07T16:11:21.538Z,11.10
2023-04-07T16:13:27.230Z,11.20
2023-04-07T16:15:40.162Z,11.30
2023-04-07T16:17:50.626Z,11.10
2023-04-07T16:19:58.237Z,10.90
2023-04-07T16:22:06.369Z,10.90
2023-04-07T16:24:11.658Z,11.00
2023-04-07T16:26:16.765Z,11.10
2023-04-07T16:28:22.280Z,11.00
2023-04-07T16:30:27.409Z,10.70
2023-04-07T16:32:32.469Z,10.70
2023-04-07T16:34:38.522Z,10.80
2023-04-07T16:36:47.621Z,10.80
2023-04-07T16:38:53.205Z,10.90
2023-04-07T16:41:04.602Z,10.70
2023-04-07T16:43:10.139Z,10.80
2023-04-07T16:45:15.454Z,10.80
2023-04-07T16:47:20.588Z,10.70
2023-04-07T16:49:25.834Z,10.60
2023-04-07T16:51:32.008Z,10.60
2023-04-07T16:53:40.060Z,10.60
2023-04-07T16:55:45.154Z,10.60
2023-04-07T16:57:50.231Z,10.60
2023-04-07T16:59:55.589Z,10.60
2023-04-07T17:02:00.761Z,10.70
2023-04-07T17:04:06.588Z,10.60
2023-04-07T17:06:12.717Z,10.50
2023-04-07T17:08:18.470Z,10.40
2023-04-07T17:10:27.418Z,10.50
2023-04-07T17:12:33.567Z,10.50
2023-04-07T17:14:43.487Z,10.40
2023-04-07T17:16:48.526Z,10.40
2023-04-07T17:18:53.849Z,10.40
2023-04-07T17:20:59.098Z,10.40
2023-04-07T17:23:04.356Z,10.40
2023-04-07T17:25:11.529Z,10.40
2023-04-07T17:27:19.130Z,10.50
2023-04-07T17:29:29.032Z,10.40
2023-04-07T17:31:35.966Z,10.40
2023-04-07T17:33:41.165Z,10.30
2023-04-07T17:35:51.077Z,10.20
2023-04-07T17:37:56.709Z,10.10
2023-04-07T17:40:04.479Z,10.10
2023-04-07T17:42:11.296Z,10.10
2023-04-07T17:44:20.193Z,10.00
2023-04-07T17:46:27.693Z,10.00
2023-04-07T17:48:33.858Z,10.00
2023-04-07T17:50:40.487Z,10.00
2023-04-07T17:52:45.749Z,10.10
2023-04-07T17:54:51.143Z,10.10
2023-04-07T17:56:56.455Z,9.90
2023-04-07T17:59:01.652Z,9.60
2023-04-07T18:01:11.780Z,9.60
2023-04-07T18:03:17.893Z,9.60
2023-04-07T18:05:23.686Z,9.70
2023-04-07T18:07:29.436Z,9.70
2023-04-07T18:09:34.714Z,9.80
2023-04-07T18:11:40.275Z,9.70
2023-04-07T18:13:45.341Z,9.70
2023-04-07T18:15:51.189Z,9.60
2023-04-07T18:17:58.894Z,9.60
2023-04-07T18:20:04.850Z,9.60
2023-04-07T18:22:10.140Z,9.50
2023-04-07T18:24:15.171Z,9.50
2023-04-07T18:26:20.876Z,9.40
2023-04-07T18:28:25.987Z,9.30
2023-04-07T18:30:31.203Z,9.40
2023-04-07T18:32:36.242Z,9.30
2023-04-07T18:34:45.044Z,9.30
2023-04-07T18:36:51.877Z,9.30
2023-04-07T18:38:57.772Z,9.10
2023-04-07T18:41:03.356Z,9.00
2023-04-07T18:43:08.407Z,8.90
2023-04-07T18:45:14.197Z,8.90
2023-04-07T18:47:19.471Z,8.80
2023-04-07T18:49:25.932Z,8.60
2023-04-07T18:51:35.277Z,8.50
2023-04-07T18:53:40.491Z,8.10
2023-04-07T18:55:45.605Z,8.30
2023-04-07T18:57:50.632Z,8.30
2023-04-07T18:59:55.735Z,8.40
2023-04-07T19:02:01.012Z,8.20
2023-04-07T19:04:06.297Z,8.30
2023-04-07T19:06:12.367Z,8.30
2023-04-07T19:08:20.545Z,8.30
2023-04-07T19:10:26.124Z,8.20
2023-04-07T19:12:31.175Z,8.10
2023-04-07T19:14:36.333Z,7.90
2023-04-07T19:16:42.081Z,7.60
2023-04-07T19:18:47.623Z,7.40
2023-04-07T19:20:52.726Z,7.60
2023-04-07T19:22:57.781Z,7.80
2023-04-07T19:25:05.509Z,7.80
2023-04-07T19:27:12.151Z,7.70
2023-04-07T19:29:17.541Z,7.80
2023-04-07T19:31:22.668Z,7.70
2023-04-07T19:33:27.865Z,7.70
2023-04-07T19:35:34.709Z,7.60
2023-04-07T19:37:40.681Z,7.60
2023-04-07T19:39:55.722Z,7.60
2023-04-07T19:42:16.060Z,7.30
2023-04-07T19:44:24.949Z,6.90
2023-04-07T19:46:30.451Z,6.60
2023-04-07T19:48:37.314Z,6.80
2023-04-07T19:50:43.902Z,6.90
2023-04-07T19:52:50.601Z,7.00
2023-04-07T19:54:56.267Z,7.00
2023-04-07T19:57:02.039Z,7.00
2023-04-07T19:59:10.532Z,7.00
2023-04-07T20:01:19.932Z,7.00
2023-04-07T20:03:25.833Z,6.90
2023-04-07T20:05:30.910Z,6.80
2023-04-07T20:07:36.547Z,6.80
2023-04-07T20:09:42.468Z,6.60
2023-04-07T20:11:48.444Z,6.70
2023-04-07T20:13:53.552Z,6.70
2023-04-07T20:16:02.158Z,6.80
2023-04-07T20:18:07.277Z,6.70
2023-04-07T20:20:14.254Z,6.40
2023-04-07T20:22:19.272Z,6.60
2023-04-07T20:24:24.436Z,6.70
2023-04-07T20:26:29.635Z,6.70
2023-04-07T20:28:35.616Z,6.60
2023-04-07T20:30:41.376Z,6.60
2023-04-07T20:32:49.049Z,6.60
2023-04-07T20:34:54.269Z,6.40
2023-04-07T20:37:00.328Z,6.50
2023-04-07T20:39:05.647Z,6.40
2023-04-07T20:41:15.080Z,6.40
2023-04-07T20:43:22.335Z,6.50
2023-04-07T20:45:27.849Z,6.40
2023-04-07T20:47:36.172Z,6.30
2023-04-07T20:49:44.429Z,6.30
2023-04-07T20:51:49.311Z,6.20
2023-04-07T20:53:57.819Z,6.10
2023-04-07T20:56:03.432Z,6.10
2023-04-07T20:58:08.532Z,6.00
2023-04-07T21:00:14.541Z,5.60
2023-04-07T21:02:19.669Z,5.60
2023-04-07T21:04:25.101Z,5.90
2023-04-07T21:06:32.837Z,5.80
2023-04-07T21:08:37.909Z,5.60
2023-04-07T21:10:42.931Z,5.70
2023-04-07T21:12:48.341Z,5.70
2023-04-07T21:14:55.889Z,5.70
2023-04-07T21:17:01.541Z,5.70
2023-04-07T21:19:06.731Z,5.70
2023-04-07T21:21:12.470Z,5.70
2023-04-07T21:23:20.240Z,5.60
2023-04-07T21:25:25.586Z,5.50
2023-04-07T21:27:32.484Z,5.30
2023-04-07T21:29:37.557Z,5.40
2023-04-07T21:31:43.100Z,4.70
2023-04-07T21:33:48.242Z,5.00
2023-04-07T21:35:55.270Z,5.10
2023-04-07T21:38:00.339Z,5.10
2023-04-07T21:40:09.779Z,5.00
2023-04-07T21:42:17.888Z,5.10
2023-04-07T21:44:22.990Z,5.10
2023-04-07T21:46:29.070Z,5.00
2023-04-07T21:48:34.974Z,5.20
2023-04-07T21:50:40.472Z,5.00
2023-04-07T21:52:45.929Z,5.10
2023-04-07T21:54:50.977Z,5.20
2023-04-07T21:56:59.793Z,5.20
2023-04-07T21:59:05.105Z,5.20
2023-04-07T22:01:10.517Z,5.10
2023-04-07T22:03:16.962Z,5.00
2023-04-07T22:05:23.055Z,5.10
2023-04-07T22:07:28.225Z,5.20
2023-04-07T22:09:33.642Z,5.00
2023-04-07T22:11:38.692Z,5.00
2023-04-07T22:13:46.605Z,4.80
2023-04-07T22:15:51.488Z,4.90
2023-04-07T22:17:59.238Z,4.80
2023-04-07T22:20:05.257Z,4.80
2023-04-07T22:22:10.599Z,4.90
2023-04-07T22:24:15.749Z,5.00
2023-04-07T22:26:20.947Z,4.90
2023-04-07T22:28:25.966Z,4.80
2023-04-07T22:30:33.600Z,4.70
2023-04-07T22:32:41.667Z,4.50
2023-04-07T22:34:47.616Z,4.50
2023-04-07T22:36:52.695Z,4.60
2023-04-07T22:38:57.720Z,4.60
2023-04-07T22:41:02.741Z,4.50
2023-04-07T22:43:07.791Z,4.50
2023-04-07T22:45:13.647Z,4.60
2023-04-07T22:47:21.455Z,4.50
2023-04-07T22:49:26.862Z,4.30
2023-04-07T22:51:32.059Z,4.30
2023-04-07T22:53:37.154Z,3.50
2023-04-07T22:55:42.214Z,3.40
2023-04-07T22:57:47.389Z,3.70
2023-04-07T22:59:52.709Z,3.60
2023-04-07T23:01:58.025Z,3.50
2023-04-07T23:04:06.020Z,3.50
2023-04-07T23:06:11.325Z,3.60
2023-04-07T23:08:16.384Z,3.90
2023-04-07T23:10:21.981Z,4.10
2023-04-07T23:12:27.417Z,4.20
2023-04-07T23:14:32.482Z,4.20
2023-04-07T23:16:37.920Z,4.30
2023-04-07T23:18:43.357Z,4.20
2023-04-07T23:20:55.567Z,4.00
2023-04-07T23:23:00.801Z,4.10
2023-04-07T23:25:05.937Z,4.20
2023-04-07T23:27:13.786Z,4.10
2023-04-07T23:29:18.828Z,4.20
2023-04-07T23:31:24.038Z,4.20
2023-04-07T23:33:29.128Z,4.30
2023-04-07T23:35:34.405Z,4.30
2023-04-07T23:37:42.438Z,4.30
2023-04-07T23:39:47.479Z,4.10
2023-04-07T23:41:52.747Z,4.10
2023-04-07T23:43:58.425Z,4.20
2023-04-07T23:46:03.631Z,4.20
2023-04-07T23:48:09.703Z,4.30
2023-04-07T23:50:17.291Z,4.20
2023-04-07T23:52:23.638Z,4.00
2023-04-07T23:54:31.352Z,3.80
2023-04-07T23:56:37.385Z,4.00
2023-04-07T23:58:44.584Z,4.10
